Time;durP1;ratioP1;P1;durP2;ratioP2;P2;SDS_P1;SDS_P2;PMS_P1;PMS_P2;Temp;Humidity;BMP_temperature;BMP_pressure;BME280_temperature;BME280_humidity;BME280_pressure;Samples;Min_cycle;Max_cycle;Signal;HPM_P1;HPM_P2
2023/01/21 00:02:22;;;;;;;22.00;10.33;;;0.90;99.90;;;;;;5058885;28;20465;-70
2023/01/21 00:04:49;;;;;;;22.00;11.87;;;0.90;99.90;;;;;;5058714;28;20566;-72
2023/01/21 00:07:16;;;;;;;19.93;10.00;;;0.90;99.90;;;;;;5058822;28;20853;-71
2023/01/21 00:09:43;;;;;;;25.73;11.63;;;1.00;99.90;;;;;;5058124;28;20455;-71
2023/01/21 00:12:09;;;;;;;19.80;10.70;;;1.00;99.90;;;;;;5058697;28;20966;-70
2023/01/21 00:14:36;;;;;;;17.10;9.40;;;1.10;99.90;;;;;;5058462;28;20793;-71
2023/01/21 00:17:03;;;;;;;14.20;9.93;;;1.00;99.90;;;;;;5058282;28;20542;-71
2023/01/21 00:19:31;;;;;;;15.50;8.70;;;1.00;99.90;;;;;;5057998;28;20490;-70
2023/01/21 00:21:58;;;;;;;24.70;9.73;;;1.00;99.90;;;;;;5058398;28;20465;-71
2023/01/21 00:24:25;;;;;;;16.43;9.30;;;1.00;99.90;;;;;;5058007;28;20613;-69
2023/01/21 00:26:53;;;;;;;21.47;9.87;;;1.00;99.90;;;;;;5058465;28;20455;-71
2023/01/21 00:29:20;;;;;;;12.23;8.17;;;1.00;99.90;;;;;;5058056;28;20786;-70
2023/01/21 00:31:47;;;;;;;16.03;9.10;;;1.00;99.90;;;;;;5058017;28;20491;-70
2023/01/21 00:34:14;;;;;;;13.90;7.23;;;1.00;99.90;;;;;;5058152;28;20459;-70
2023/01/21 00:36:43;;;;;;;14.27;9.33;;;1.00;99.90;;;;;;5058223;28;20458;-70
2023/01/21 00:39:10;;;;;;;14.23;9.93;;;0.90;99.90;;;;;;5057925;28;20459;-70
2023/01/21 00:41:37;;;;;;;14.30;8.87;;;0.90;99.90;;;;;;5057881;28;20514;-71
2023/01/21 00:44:04;;;;;;;13.73;8.47;;;0.90;99.90;;;;;;5057895;28;20501;-72
2023/01/21 00:46:32;;;;;;;13.50;8.33;;;1.00;99.90;;;;;;5058269;28;20546;-70
2023/01/21 00:48:59;;;;;;;15.17;8.40;;;1.00;99.90;;;;;;5057941;28;20455;-71
2023/01/21 00:51:26;;;;;;;16.70;8.10;;;1.00;99.90;;;;;;5058502;28;20459;-69
2023/01/21 00:53:54;;;;;;;14.00;8.23;;;1.00;99.90;;;;;;5058297;28;20470;-70
2023/01/21 00:56:21;;;;;;;16.23;9.07;;;1.10;99.90;;;;;;5057642;28;20463;-71
2023/01/21 00:58:48;;;;;;;16.50;9.77;;;1.00;99.90;;;;;;5057819;28;20520;-71
2023/01/21 01:01:17;;;;;;;12.47;8.00;;;1.00;99.90;;;;;;5057889;28;20485;-70
2023/01/21 01:03:45;;;;;;;15.60;8.60;;;1.00;99.90;;;;;;5057824;28;20542;-70
2023/01/21 01:06:14;;;;;;;15.13;8.03;;;0.90;99.90;;;;;;5057778;28;20455;-70
2023/01/21 01:08:41;;;;;;;14.30;8.63;;;0.90;99.90;;;;;;5057398;28;20455;-70
2023/01/21 01:11:10;;;;;;;16.10;8.10;;;0.90;99.90;;;;;;5057736;28;20931;-70
2023/01/21 01:13:37;;;;;;;13.97;8.30;;;0.90;99.90;;;;;;5057056;28;20478;-72
2023/01/21 01:16:05;;;;;;;15.30;8.17;;;0.90;99.90;;;;;;5057443;28;20459;-71
2023/01/21 01:18:34;;;;;;;11.80;7.73;;;0.90;99.90;;;;;;5057548;28;20459;-70
2023/01/21 01:21:01;;;;;;;18.60;8.20;;;0.90;99.90;;;;;;5057593;28;20489;-71
2023/01/21 01:23:28;;;;;;;9.50;6.73;;;0.90;99.90;;;;;;5058004;28;20995;-70
2023/01/21 01:25:56;;;;;;;11.03;7.10;;;0.90;99.90;;;;;;5058273;28;20465;-71
2023/01/21 01:28:25;;;;;;;14.30;7.30;;;1.00;99.90;;;;;;5058281;28;20467;-71
2023/01/21 01:30:52;;;;;;;16.50;7.30;;;1.00;99.90;;;;;;5057483;28;20518;-70
2023/01/21 01:33:19;;;;;;;11.83;7.10;;;0.90;99.90;;;;;;5056882;28;20502;-71
2023/01/21 01:35:46;;;;;;;15.10;8.30;;;1.00;99.90;;;;;;5057078;28;20465;-71
2023/01/21 01:38:14;;;;;;;13.60;7.67;;;1.00;99.90;;;;;;5057356;28;20776;-71
2023/01/21 01:40:41;;;;;;;19.83;8.80;;;1.00;99.90;;;;;;5056742;28;20570;-71
2023/01/21 01:43:16;;;;;;;12.97;9.00;;;1.00;99.90;;;;;;5056425;28;20482;-70
2023/01/21 01:45:44;;;;;;;15.60;8.87;;;1.10;99.90;;;;;;5056619;28;20443;-71
2023/01/21 01:48:16;;;;;;;16.57;9.80;;;1.10;99.90;;;;;;5056545;28;20530;-71
2023/01/21 01:50:43;;;;;;;13.87;8.20;;;1.10;99.90;;;;;;5056615;28;20899;-69
2023/01/21 01:53:13;;;;;;;13.10;7.77;;;1.10;99.90;;;;;;5057665;28;20490;-69
2023/01/21 01:55:41;;;;;;;14.30;9.13;;;1.10;99.90;;;;;;5057413;28;20523;-70
2023/01/21 01:58:12;;;;;;;17.70;8.70;;;1.10;99.90;;;;;;5057705;28;20784;-69
2023/01/21 02:00:39;;;;;;;12.30;7.97;;;1.10;99.90;;;;;;5057630;28;20553;-68
2023/01/21 02:05:48;;;;;;;17.97;9.47;;;1.10;99.90;;;;;;5040938;28;20458;-70
2023/01/21 02:08:15;;;;;;;19.83;9.10;;;1.10;99.90;;;;;;5057051;28;20553;-69
2023/01/21 02:10:42;;;;;;;25.47;11.33;;;1.10;99.90;;;;;;5056980;28;20457;-68
2023/01/21 02:13:10;;;;;;;19.57;10.23;;;1.20;99.90;;;;;;5056921;28;20546;-69
2023/01/21 02:15:44;;;;;;;17.60;10.70;;;1.10;99.90;;;;;;5057162;28;20814;-68
2023/01/21 02:18:26;;;;;;;24.40;12.20;;;1.10;99.90;;;;;;5057382;28;20466;-67
2023/01/21 02:21:18;;;;;;;19.10;10.40;;;1.10;99.90;;;;;;5057020;28;20872;-68
2023/01/21 02:24:13;;;;;;;19.43;10.60;;;1.10;99.90;;;;;;5056188;28;20455;-69
2023/01/21 02:27:06;;;;;;;21.37;11.53;;;1.20;99.90;;;;;;5056134;28;20557;-69
2023/01/21 02:30:17;;;;;;;18.37;10.73;;;1.20;99.90;;;;;;5056883;28;20455;-69
2023/01/21 02:33:12;;;;;;;20.40;12.50;;;1.30;99.90;;;;;;4995668;28;20545;-69
2023/01/21 02:35:43;;;;;;;23.47;13.03;;;1.30;99.90;;;;;;5053838;28;20535;-70
2023/01/21 02:38:16;;;;;;;23.67;12.80;;;1.30;99.90;;;;;;5056686;28;20753;-69
2023/01/21 02:40:51;;;;;;;21.43;10.93;;;1.30;99.90;;;;;;5056952;28;20549;-69
2023/01/21 02:43:26;;;;;;;24.17;11.90;;;1.30;99.90;;;;;;5056111;28;20493;-69
2023/01/21 02:45:59;;;;;;;24.73;11.87;;;1.30;99.90;;;;;;5056235;28;20443;-69
2023/01/21 02:48:33;;;;;;;22.73;11.77;;;1.40;99.90;;;;;;5056758;28;20443;-68
2023/01/21 02:51:00;;;;;;;23.47;11.47;;;1.40;99.90;;;;;;5056405;28;20953;-69
2023/01/21 02:53:29;;;;;;;21.57;11.20;;;1.40;99.90;;;;;;5057386;28;20455;-69
2023/01/21 02:56:00;;;;;;;23.33;11.47;;;1.40;99.90;;;;;;5057228;28;20799;-69
2023/01/21 02:58:31;;;;;;;20.40;11.70;;;1.40;99.90;;;;;;5056926;28;20443;-68
2023/01/21 03:01:11;;;;;;;23.70;11.40;;;1.40;99.90;;;;;;5056541;28;20486;-69
2023/01/21 03:04:00;;;;;;;21.63;10.33;;;1.40;99.90;;;;;;5056800;28;20533;-69
2023/01/21 03:06:44;;;;;;;16.90;10.27;;;1.40;99.90;;;;;;5056754;28;20515;-69
2023/01/21 03:09:21;;;;;;;16.77;9.50;;;1.50;99.90;;;;;;5056574;28;20896;-68
2023/01/21 03:11:59;;;;;;;19.27;10.73;;;1.40;99.90;;;;;;5057051;28;20443;-69
2023/01/21 03:17:22;;;;;;;19.83;10.73;;;1.50;99.90;;;;;;5056540;28;20918;-68
2023/01/21 03:19:59;;;;;;;19.00;10.40;;;1.50;99.90;;;;;;5057345;28;20508;-68
2023/01/21 03:22:31;;;;;;;19.37;10.50;;;1.50;99.90;;;;;;5057018;28;20498;-69
2023/01/21 03:24:59;;;;;;;20.53;11.50;;;1.50;99.90;;;;;;5056470;28;20922;-69
2023/01/21 03:27:29;;;;;;;17.03;9.50;;;1.50;99.90;;;;;;5057286;28;20452;-69
2023/01/21 03:30:02;;;;;;;20.60;11.57;;;1.60;99.90;;;;;;5057444;28;20617;-69
2023/01/21 03:32:32;;;;;;;17.50;9.80;;;1.60;99.90;;;;;;5057038;28;20435;-69
2023/01/21 03:35:03;;;;;;;14.93;8.50;;;1.60;99.90;;;;;;5057400;28;20444;-70
2023/01/21 03:37:33;;;;;;;14.13;8.77;;;1.60;99.90;;;;;;5057338;28;20546;-69
2023/01/21 03:40:13;;;;;;;17.60;9.93;;;1.70;99.90;;;;;;5056585;28;20455;-70
2023/01/21 03:42:41;;;;;;;17.10;9.17;;;1.70;99.90;;;;;;5056038;28;20564;-69
2023/01/21 03:45:09;;;;;;;16.13;9.07;;;1.60;99.90;;;;;;5056189;28;20459;-69
2023/01/21 03:47:38;;;;;;;17.20;10.00;;;1.60;99.90;;;;;;5055529;28;20469;-69
2023/01/21 03:50:10;;;;;;;13.60;8.57;;;1.60;99.90;;;;;;5055494;28;20455;-70
2023/01/21 03:52:40;;;;;;;17.43;10.07;;;1.60;99.90;;;;;;5055261;28;20478;-70
2023/01/21 03:55:09;;;;;;;13.07;8.50;;;1.50;99.90;;;;;;5055532;28;20565;-70
2023/01/21 03:57:36;;;;;;;12.80;7.80;;;1.50;99.90;;;;;;5055160;28;20931;-68
2023/01/21 04:00:03;;;;;;;15.57;8.40;;;1.50;99.90;;;;;;5055076;28;20521;-68
2023/01/21 04:02:30;;;;;;;16.40;8.50;;;1.50;99.90;;;;;;5054290;28;20919;-69
2023/01/21 04:04:57;;;;;;;13.23;6.87;;;1.40;99.90;;;;;;5054706;28;20769;-69
2023/01/21 04:07:25;;;;;;;14.57;8.87;;;1.40;99.90;;;;;;5054920;28;20534;-70
2023/01/21 04:09:52;;;;;;;13.93;8.20;;;1.30;99.90;;;;;;5055108;28;20546;-69
2023/01/21 04:12:19;;;;;;;13.93;7.90;;;1.30;99.90;;;;;;5055150;28;20456;-68
2023/01/21 04:14:46;;;;;;;14.43;7.83;;;1.30;99.90;;;;;;5055353;28;20501;-68
2023/01/21 04:17:13;;;;;;;11.27;7.33;;;1.30;99.90;;;;;;5055343;28;20459;-69
2023/01/21 04:19:39;;;;;;;12.73;7.80;;;1.30;99.90;;;;;;5055358;28;20538;-68
2023/01/21 04:22:06;;;;;;;11.63;7.23;;;1.30;99.90;;;;;;5055402;28;20507;-68
2023/01/21 04:24:35;;;;;;;13.40;6.70;;;1.30;99.90;;;;;;5055163;28;20481;-69
2023/01/21 04:27:01;;;;;;;14.63;7.30;;;1.30;99.90;;;;;;5054998;28;20542;-69
2023/01/21 04:29:28;;;;;;;10.40;7.20;;;1.40;99.90;;;;;;5054753;28;20840;-69
2023/01/21 04:31:55;;;;;;;12.00;6.50;;;1.40;99.90;;;;;;5054758;28;20455;-69
2023/01/21 04:34:22;;;;;;;13.67;7.03;;;1.40;99.90;;;;;;5054565;28;20806;-69
2023/01/21 04:36:49;;;;;;;11.20;7.50;;;1.40;99.90;;;;;;5054643;28;20840;-69
2023/01/21 04:39:16;;;;;;;13.17;7.90;;;1.40;99.90;;;;;;5054915;28;20465;-69
2023/01/21 04:41:44;;;;;;;11.37;6.93;;;1.30;99.90;;;;;;5054517;28;20743;-69
2023/01/21 04:44:11;;;;;;;11.73;6.03;;;1.30;99.90;;;;;;5055113;28;20868;-69
2023/01/21 04:46:38;;;;;;;9.93;6.50;;;1.40;99.90;;;;;;5057825;28;20459;-69
2023/01/21 04:49:05;;;;;;;12.80;7.17;;;1.40;99.90;;;;;;5058228;28;20455;-69
2023/01/21 04:51:32;;;;;;;8.90;6.33;;;1.30;99.90;;;;;;5057898;28;20447;-69
2023/01/21 04:53:58;;;;;;;16.57;7.70;;;1.30;99.90;;;;;;5058448;28;20455;-69
2023/01/21 04:56:25;;;;;;;12.80;7.50;;;1.30;99.90;;;;;;5058025;28;20447;-69
2023/01/21 04:58:53;;;;;;;12.30;7.73;;;1.20;99.90;;;;;;5058206;28;20455;-70
2023/01/21 05:01:20;;;;;;;10.90;6.93;;;1.20;99.90;;;;;;5058055;28;20537;-69
2023/01/21 05:03:47;;;;;;;9.80;6.80;;;1.10;99.90;;;;;;5058135;28;20487;-70
2023/01/21 05:06:14;;;;;;;14.10;6.70;;;1.10;99.90;;;;;;5057796;28;20478;-69
2023/01/21 05:08:41;;;;;;;11.10;6.67;;;1.10;99.90;;;;;;5057536;28;20469;-69
2023/01/21 05:11:08;;;;;;;10.50;6.80;;;1.10;99.90;;;;;;5057876;28;20465;-69
2023/01/21 05:13:35;;;;;;;13.23;7.80;;;1.10;99.90;;;;;;5057576;28;20455;-68
2023/01/21 05:16:08;;;;;;;12.17;7.80;;;1.10;99.90;;;;;;5057082;28;20490;-68
2023/01/21 05:18:35;;;;;;;9.97;6.93;;;1.10;99.90;;;;;;5057721;28;20455;-69
2023/01/21 05:21:02;;;;;;;14.43;7.70;;;1.10;99.90;;;;;;5057200;28;20546;-69
2023/01/21 05:23:29;;;;;;;10.40;6.40;;;1.10;99.90;;;;;;5057475;28;20458;-69
2023/01/21 05:25:56;;;;;;;10.10;7.03;;;1.10;99.90;;;;;;5057400;28;20541;-68
2023/01/21 05:28:23;;;;;;;11.90;6.83;;;1.10;99.90;;;;;;5056755;28;20455;-69
2023/01/21 05:30:50;;;;;;;12.17;6.50;;;1.20;99.90;;;;;;5057172;28;20498;-70
2023/01/21 05:33:22;;;;;;;11.37;7.60;;;1.20;99.90;;;;;;5057423;28;20459;-69
2023/01/21 05:35:49;;;;;;;17.13;7.27;;;1.20;99.90;;;;;;5057126;28;20443;-69
2023/01/21 05:38:16;;;;;;;9.97;6.87;;;1.20;99.90;;;;;;5057002;28;20652;-69
2023/01/21 05:40:43;;;;;;;11.40;7.23;;;1.20;99.90;;;;;;5056630;28;20463;-70
2023/01/21 05:43:09;;;;;;;10.80;6.27;;;1.30;99.90;;;;;;5056615;28;20506;-69
2023/01/21 05:45:36;;;;;;;11.43;8.17;;;1.30;99.90;;;;;;5056802;28;20541;-68
2023/01/21 05:48:04;;;;;;;11.73;6.93;;;1.30;99.90;;;;;;5057017;28;20802;-69
2023/01/21 05:50:32;;;;;;;13.70;6.90;;;1.30;99.90;;;;;;5056741;28;20538;-69
2023/01/21 05:52:59;;;;;;;9.67;7.77;;;1.40;99.90;;;;;;5056615;28;20456;-68
2023/01/21 05:55:26;;;;;;;12.37;7.60;;;1.40;99.90;;;;;;5056580;28;20455;-69
2023/01/21 05:57:52;;;;;;;10.27;6.40;;;1.30;99.90;;;;;;5055948;28;20465;-68
2023/01/21 06:00:20;;;;;;;12.63;7.07;;;1.40;99.90;;;;;;5056448;28;20562;-68
2023/01/21 06:02:47;;;;;;;14.60;7.10;;;1.40;99.90;;;;;;5056558;28;20479;-70
2023/01/21 06:05:14;;;;;;;12.13;7.20;;;1.40;99.90;;;;;;5058365;28;20546;-69
2023/01/21 06:07:42;;;;;;;13.20;7.90;;;1.40;99.90;;;;;;5056102;28;20558;-69
2023/01/21 06:10:10;;;;;;;11.17;7.40;;;1.50;99.90;;;;;;5056129;28;20783;-69
2023/01/21 06:12:37;;;;;;;10.83;7.33;;;1.50;99.90;;;;;;5055954;28;20538;-69
2023/01/21 06:15:04;;;;;;;15.33;7.60;;;1.60;99.90;;;;;;5055953;28;20533;-69
2023/01/21 06:17:31;;;;;;;12.17;8.00;;;1.60;99.90;;;;;;5056726;28;20455;-69
2023/01/21 06:19:58;;;;;;;16.73;8.57;;;1.70;99.90;;;;;;5056086;28;20526;-69
2023/01/21 06:22:25;;;;;;;15.60;9.20;;;1.70;99.90;;;;;;5056003;28;20967;-68
2023/01/21 06:24:53;;;;;;;16.83;10.53;;;1.70;99.90;;;;;;5057723;28;20459;-69
2023/01/21 06:27:20;;;;;;;13.20;9.10;;;1.70;99.90;;;;;;5055909;28;20451;-69
2023/01/21 06:29:47;;;;;;;13.63;8.50;;;1.60;99.90;;;;;;5055794;28;20465;-70
2023/01/21 06:32:13;;;;;;;17.03;9.80;;;1.70;99.90;;;;;;5056682;28;20450;-70
2023/01/21 06:34:40;;;;;;;15.83;9.60;;;1.70;99.90;;;;;;5056147;28;20455;-69
2023/01/21 06:37:07;;;;;;;17.80;10.60;;;1.70;99.90;;;;;;5056965;28;20465;-69
2023/01/21 06:39:34;;;;;;;20.83;10.63;;;1.70;99.90;;;;;;5056207;28;20558;-69
2023/01/21 06:42:02;;;;;;;19.33;10.63;;;1.70;99.90;;;;;;5055929;28;20885;-69
2023/01/21 06:44:29;;;;;;;16.57;10.83;;;1.70;99.90;;;;;;5056013;28;20446;-69
2023/01/21 06:46:56;;;;;;;17.80;11.00;;;1.70;99.90;;;;;;5056640;28;20465;-70
2023/01/21 06:49:23;;;;;;;19.70;13.20;;;1.70;99.90;;;;;;5056216;28;20862;-69
2023/01/21 06:51:50;;;;;;;17.60;12.33;;;1.80;99.90;;;;;;5055872;28;20542;-69
2023/01/21 06:54:17;;;;;;;25.90;13.80;;;1.80;99.90;;;;;;5055760;28;20485;-69
2023/01/21 06:56:44;;;;;;;20.63;13.47;;;1.80;99.90;;;;;;5056088;28;20455;-70
2023/01/21 06:59:12;;;;;;;20.90;13.07;;;1.80;99.90;;;;;;5056194;28;20466;-69
2023/01/21 07:01:39;;;;;;;23.33;14.63;;;1.80;99.90;;;;;;5057404;28;21101;-70
2023/01/21 07:04:06;;;;;;;19.20;12.17;;;1.80;99.90;;;;;;5057258;28;20485;-69
2023/01/21 07:06:33;;;;;;;18.03;11.60;;;1.80;99.90;;;;;;5055912;28;20451;-68
2023/01/21 07:09:00;;;;;;;24.10;13.00;;;1.80;99.90;;;;;;5055045;28;20986;-69
2023/01/21 07:11:26;;;;;;;21.67;13.33;;;1.80;99.90;;;;;;5055845;28;20455;-68
2023/01/21 07:13:53;;;;;;;21.50;13.60;;;1.80;99.90;;;;;;5055617;28;20545;-70
2023/01/21 07:16:21;;;;;;;23.57;15.07;;;1.80;99.90;;;;;;5055428;28;20451;-70
2023/01/21 07:18:48;;;;;;;22.40;13.97;;;1.80;99.90;;;;;;5055195;28;20550;-69
2023/01/21 07:21:15;;;;;;;25.83;14.40;;;1.80;99.90;;;;;;5055479;28;20486;-69
2023/01/21 07:23:42;;;;;;;26.40;14.97;;;1.80;99.90;;;;;;5055032;28;20487;-69
2023/01/21 07:26:09;;;;;;;22.90;15.03;;;1.80;99.90;;;;;;5054930;28;20465;-69
2023/01/21 07:28:36;;;;;;;21.67;14.20;;;1.80;99.90;;;;;;5055112;28;20550;-69
2023/01/21 07:31:03;;;;;;;20.57;13.73;;;1.80;99.90;;;;;;5054422;28;20466;-70
2023/01/21 07:33:31;;;;;;;22.80;14.17;;;1.80;99.90;;;;;;5055887;28;20549;-69
2023/01/21 07:35:58;;;;;;;24.03;14.87;;;1.80;99.90;;;;;;5055960;28;20526;-70
2023/01/21 07:38:25;;;;;;;25.13;15.33;;;1.80;99.90;;;;;;5055172;28;20549;-69
2023/01/21 07:40:52;;;;;;;20.80;14.70;;;1.80;99.90;;;;;;5054600;28;20455;-69
2023/01/21 07:43:19;;;;;;;20.23;13.87;;;1.80;99.90;;;;;;5054304;28;20539;-70
2023/01/21 07:45:46;;;;;;;18.60;13.70;;;1.80;99.90;;;;;;5054520;28;20549;-69
2023/01/21 07:48:15;;;;;;;22.10;14.13;;;1.80;99.90;;;;;;5054589;28;20550;-69
2023/01/21 07:50:43;;;;;;;21.00;13.00;;;1.90;99.90;;;;;;5054574;28;20795;-68
2023/01/21 07:53:11;;;;;;;26.17;13.57;;;1.90;99.90;;;;;;5054540;28;20844;-69
2023/01/21 07:55:38;;;;;;;21.13;13.33;;;1.90;99.90;;;;;;5055004;28;20455;-68
2023/01/21 07:58:05;;;;;;;25.10;15.20;;;1.90;99.90;;;;;;5054480;28;20474;-70
2023/01/21 08:00:32;;;;;;;17.07;12.00;;;1.90;99.90;;;;;;5054636;28;20498;-69
2023/01/21 08:02:59;;;;;;;18.00;12.13;;;1.90;99.90;;;;;;5054389;28;20487;-70
2023/01/21 08:05:26;;;;;;;18.70;12.83;;;1.90;99.90;;;;;;5054935;28;20550;-70
2023/01/21 08:07:57;;;;;;;18.07;11.97;;;1.90;99.90;;;;;;5054812;28;20465;-70
2023/01/21 08:10:24;;;;;;;19.60;12.40;;;1.90;99.90;;;;;;5054719;28;20454;-70
2023/01/21 08:12:51;;;;;;;21.90;13.67;;;1.90;99.90;;;;;;5054538;28;20538;-69
2023/01/21 08:15:18;;;;;;;22.20;13.80;;;2.00;99.90;;;;;;5054505;28;20465;-69
2023/01/21 08:17:46;;;;;;;19.57;13.63;;;2.00;99.90;;;;;;5054640;28;20858;-70
2023/01/21 08:20:13;;;;;;;26.97;14.33;;;2.00;99.90;;;;;;5057052;28;20744;-68
2023/01/21 08:22:40;;;;;;;19.67;13.73;;;2.00;99.90;;;;;;5058263;28;20486;-68
2023/01/21 08:25:10;;;;;;;20.20;13.60;;;2.10;99.90;;;;;;5058305;28;20550;-70
2023/01/21 08:27:36;;;;;;;21.90;13.17;;;2.10;99.90;;;;;;5058335;28;20733;-69
2023/01/21 08:30:04;;;;;;;19.63;13.00;;;2.10;99.90;;;;;;5058049;28;20545;-69
2023/01/21 08:32:31;;;;;;;22.00;14.30;;;2.10;99.90;;;;;;5058770;28;20538;-69
2023/01/21 08:34:58;;;;;;;22.77;14.17;;;2.20;99.90;;;;;;5067734;28;20454;-70
2023/01/21 08:37:25;;;;;;;22.40;14.13;;;2.20;99.90;;;;;;5077558;28;20886;-68
2023/01/21 08:39:52;;;;;;;21.57;13.57;;;2.20;99.90;;;;;;5059924;28;20542;-68
2023/01/21 08:42:20;;;;;;;22.53;13.43;;;2.20;99.90;;;;;;5057502;28;20483;-69
2023/01/21 08:44:49;;;;;;;19.50;13.07;;;2.30;99.90;;;;;;5057931;28;20511;-70
2023/01/21 08:47:16;;;;;;;19.70;11.90;;;2.30;99.90;;;;;;5057487;28;20451;-70
2023/01/21 08:49:43;;;;;;;19.37;11.17;;;2.30;99.90;;;;;;5057392;28;20481;-69
2023/01/21 08:52:10;;;;;;;25.77;12.93;;;2.30;99.90;;;;;;5057751;28;20469;-69
2023/01/21 08:54:37;;;;;;;22.00;13.77;;;2.40;99.90;;;;;;5058031;28;20462;-70
2023/01/21 08:57:04;;;;;;;27.73;14.83;;;2.40;99.90;;;;;;5057709;28;20485;-71
2023/01/21 08:59:32;;;;;;;21.37;11.07;;;2.40;99.90;;;;;;5072598;28;20464;-70
2023/01/21 09:01:59;;;;;;;20.87;13.27;;;2.40;99.90;;;;;;5078274;28;20549;-68
2023/01/21 09:04:26;;;;;;;20.83;12.80;;;2.40;99.90;;;;;;5077638;28;20579;-69
2023/01/21 09:06:53;;;;;;;20.13;11.87;;;2.40;99.90;;;;;;5078009;28;20462;-68
2023/01/21 09:09:20;;;;;;;20.40;12.90;;;2.50;99.90;;;;;;5077456;28;20525;-70
2023/01/21 09:11:47;;;;;;;18.13;11.37;;;2.40;99.90;;;;;;5077398;28;20919;-68
2023/01/21 09:14:13;;;;;;;23.47;12.27;;;2.50;99.90;;;;;;5077301;28;20493;-69
2023/01/21 09:16:42;;;;;;;17.63;11.70;;;2.40;99.90;;;;;;5077092;28;20484;-69
2023/01/21 09:19:08;;;;;;;19.90;11.40;;;2.50;99.90;;;;;;5076886;28;20454;-68
2023/01/21 09:21:36;;;;;;;19.03;11.50;;;2.50;99.90;;;;;;5077266;28;20532;-69
2023/01/21 09:24:03;;;;;;;19.43;12.30;;;2.50;99.90;;;;;;5077583;28;20482;-70
2023/01/21 09:26:30;;;;;;;20.93;11.93;;;2.50;99.90;;;;;;5077281;28;20911;-69
2023/01/21 09:28:59;;;;;;;20.93;12.77;;;2.60;99.90;;;;;;5077329;28;20581;-70
2023/01/21 09:31:28;;;;;;;20.73;12.90;;;2.60;99.90;;;;;;5077267;28;20454;-69
2023/01/21 09:33:59;;;;;;;20.50;12.77;;;2.60;99.90;;;;;;5077391;28;20450;-69
2023/01/21 09:36:27;;;;;;;25.40;12.47;;;2.60;99.90;;;;;;5077575;28;20847;-69
2023/01/21 09:38:54;;;;;;;20.10;12.47;;;2.70;99.90;;;;;;5077127;28;20465;-69
2023/01/21 09:41:28;;;;;;;18.10;11.20;;;2.70;99.90;;;;;;5076914;28;20473;-72
2023/01/21 09:44:04;;;;;;;17.67;12.10;;;2.70;99.90;;;;;;5076796;28;20752;-70
2023/01/21 09:46:39;;;;;;;23.50;14.30;;;2.80;99.90;;;;;;5076499;28;20434;-69
2023/01/21 09:49:16;;;;;;;20.77;13.23;;;2.80;99.90;;;;;;5077015;28;20504;-70
2023/01/21 09:51:50;;;;;;;20.60;12.57;;;2.80;99.90;;;;;;5076520;28;20766;-69
2023/01/21 09:54:26;;;;;;;18.57;13.43;;;2.80;99.90;;;;;;5076498;28;20470;-70
2023/01/21 09:57:20;;;;;;;21.43;13.60;;;2.80;99.90;;;;;;5076213;28;20443;-70
2023/01/21 10:00:04;;;;;;;20.90;12.70;;;2.80;99.90;;;;;;5071718;28;20450;-68
2023/01/21 10:02:39;;;;;;;22.77;12.20;;;2.80;99.90;;;;;;5076286;28;20473;-70
2023/01/21 10:05:29;;;;;;;20.43;11.07;;;2.90;99.90;;;;;;5076339;28;20453;-71
2023/01/21 10:08:03;;;;;;;23.07;12.70;;;3.00;99.90;;;;;;5076530;28;20457;-69
2023/01/21 10:10:40;;;;;;;19.37;12.20;;;3.00;99.90;;;;;;5076347;28;20441;-69
2023/01/21 10:13:30;;;;;;;20.97;12.53;;;3.00;99.90;;;;;;5075924;28;20922;-69
2023/01/21 10:16:06;;;;;;;18.87;12.10;;;3.10;99.90;;;;;;5075668;28;20466;-69
2023/01/21 10:18:38;;;;;;;22.53;12.03;;;3.10;99.90;;;;;;5076108;28;20442;-70
2023/01/21 10:21:13;;;;;;;21.07;12.30;;;3.00;99.90;;;;;;5075977;28;20442;-69
2023/01/21 10:23:43;;;;;;;19.10;11.50;;;3.00;99.90;;;;;;5076012;28;20470;-69
2023/01/21 10:26:13;;;;;;;19.33;12.00;;;3.10;99.90;;;;;;5076019;28;20439;-68
2023/01/21 10:28:42;;;;;;;19.53;11.73;;;3.10;99.90;;;;;;5076059;28;21006;-69
2023/01/21 10:31:20;;;;;;;23.70;12.67;;;3.10;99.90;;;;;;5075856;28;20454;-69
2023/01/21 10:33:46;;;;;;;18.70;11.40;;;3.10;99.90;;;;;;5075604;28;20439;-69
2023/01/21 10:36:43;;;;;;;16.87;11.50;;;3.10;99.90;;;;;;5075257;28;20465;-69
2023/01/21 10:39:22;;;;;;;17.80;10.87;;;3.10;99.90;;;;;;5075584;28;20481;-69
2023/01/21 10:42:00;;;;;;;21.50;13.70;;;3.20;99.90;;;;;;5075111;28;20449;-69
2023/01/21 10:44:37;;;;;;;19.03;11.83;;;3.20;99.90;;;;;;5075511;28;20466;-69
2023/01/21 10:47:11;;;;;;;16.33;10.90;;;3.30;99.90;;;;;;5076123;28;20533;-69
2023/01/21 10:49:52;;;;;;;15.97;11.57;;;3.20;99.90;;;;;;5076143;28;20543;-70
2023/01/21 10:52:28;;;;;;;20.70;12.03;;;3.30;99.90;;;;;;5077350;28;20521;-70
2023/01/21 10:55:00;;;;;;;18.53;12.17;;;3.40;99.90;;;;;;5076866;28;20444;-70
2023/01/21 10:57:41;;;;;;;18.40;11.07;;;3.40;99.90;;;;;;5078791;28;20439;-70
2023/01/21 11:00:19;;;;;;;17.30;9.50;;;3.50;99.90;;;;;;5075537;28;20784;-71
2023/01/21 11:02:50;;;;;;;18.93;10.50;;;3.60;99.90;;;;;;5075133;28;20521;-69
2023/01/21 11:05:18;;;;;;;17.07;11.20;;;3.60;99.90;;;;;;5074734;28;20501;-70
2023/01/21 11:07:48;;;;;;;14.53;10.00;;;3.50;99.90;;;;;;5075184;28;20522;-69
2023/01/21 11:10:19;;;;;;;16.40;10.70;;;3.60;99.90;;;;;;5074812;28;20526;-70
2023/01/21 11:12:47;;;;;;;19.23;10.90;;;3.60;99.90;;;;;;5075219;28;20446;-70
2023/01/21 11:15:17;;;;;;;17.23;11.20;;;3.60;99.90;;;;;;5074978;28;20549;-70
2023/01/21 11:17:47;;;;;;;15.93;10.60;;;3.70;99.90;;;;;;5074424;28;20493;-69
2023/01/21 11:20:20;;;;;;;20.50;11.50;;;3.60;99.90;;;;;;5074832;28;20458;-69
2023/01/21 11:22:49;;;;;;;16.17;10.60;;;3.70;99.90;;;;;;5074945;28;20448;-69
2023/01/21 11:25:31;;;;;;;15.80;10.57;;;3.70;99.90;;;;;;5075050;28;20464;-70
2023/01/21 11:27:58;;;;;;;14.40;10.20;;;3.80;99.90;;;;;;5074656;28;20927;-68
2023/01/21 11:30:31;;;;;;;16.50;11.30;;;3.80;99.90;;;;;;5074513;28;20917;-70
2023/01/21 11:33:13;;;;;;;17.07;9.80;;;3.80;99.90;;;;;;5074889;28;20541;-70
2023/01/21 11:35:40;;;;;;;19.90;10.93;;;3.90;99.90;;;;;;5075420;28;20442;-69
2023/01/21 11:38:22;;;;;;;16.87;10.80;;;3.90;99.90;;;;;;5075925;28;20553;-68
2023/01/21 11:41:00;;;;;;;13.80;9.97;;;4.00;99.90;;;;;;5076159;28;20533;-69
2023/01/21 11:43:35;;;;;;;18.23;10.67;;;4.10;99.90;;;;;;5075501;28;20884;-68
2023/01/21 11:46:31;;;;;;;13.77;10.07;;;4.20;99.90;;;;;;5075989;28;20462;-69
2023/01/21 11:49:27;;;;;;;20.63;10.17;;;4.30;99.90;;;;;;5075074;28;20871;-69
2023/01/21 11:52:19;;;;;;;21.17;13.00;;;4.30;99.90;;;;;;5075436;28;20767;-68
2023/01/21 11:54:48;;;;;;;16.30;10.67;;;4.40;99.90;;;;;;5065981;28;20459;-69
2023/01/21 11:57:25;;;;;;;13.93;9.90;;;4.40;99.90;;;;;;5078988;28;20926;-69
2023/01/21 11:59:55;;;;;;;15.00;9.93;;;4.40;99.90;;;;;;5079682;28;20473;-69
2023/01/21 12:02:28;;;;;;;13.47;9.80;;;4.40;99.90;;;;;;5079337;28;20582;-69
2023/01/21 12:04:59;;;;;;;15.83;9.90;;;4.30;99.90;;;;;;5079856;28;20576;-69
2023/01/21 12:07:30;;;;;;;13.07;10.60;;;4.40;99.90;;;;;;5080744;28;20459;-68
2023/01/21 12:10:04;;;;;;;13.40;9.63;;;4.30;99.90;;;;;;5079386;28;20469;-69
2023/01/21 12:12:52;;;;;;;14.20;9.70;;;4.40;99.90;;;;;;5079172;28;20481;-69
2023/01/21 12:15:33;;;;;;;12.50;8.83;;;4.40;99.90;;;;;;5071984;28;20522;-69
2023/01/21 12:18:14;;;;;;;13.53;8.60;;;4.40;99.90;;;;;;5080326;28;20442;-69
2023/01/21 12:20:50;;;;;;;13.33;9.17;;;4.40;99.90;;;;;;5079936;28;20434;-69
2023/01/21 12:23:42;;;;;;;16.80;10.40;;;4.50;99.90;;;;;;5079633;28;20888;-69
2023/01/21 12:26:28;;;;;;;13.13;8.40;;;4.50;99.90;;;;;;5075288;28;20493;-70
2023/01/21 12:29:09;;;;;;;12.97;7.90;;;4.60;99.90;;;;;;5082149;28;20525;-68
2023/01/21 12:31:41;;;;;;;9.47;7.30;;;4.60;99.90;;;;;;5079995;28;20538;-69
2023/01/21 12:34:15;;;;;;;9.97;7.60;;;4.60;99.90;;;;;;5078639;28;20740;-69
2023/01/21 12:36:47;;;;;;;12.37;7.43;;;4.70;99.90;;;;;;5058401;28;20552;-68
2023/01/21 12:39:20;;;;;;;9.40;6.40;;;4.70;99.90;;;;;;5058778;28;20473;-69
2023/01/21 12:41:58;;;;;;;12.03;7.83;;;4.70;99.90;;;;;;5059362;28;20443;-68
2023/01/21 12:44:31;;;;;;;9.60;6.37;;;4.80;99.90;;;;;;5061513;28;20554;-69
2023/01/21 12:47:03;;;;;;;10.13;7.20;;;4.80;99.90;;;;;;5060513;28;20577;-69
2023/01/21 12:50:04;;;;;;;10.57;6.40;;;4.80;99.90;;;;;;5060840;28;20958;-69
2023/01/21 12:52:39;;;;;;;7.40;6.17;;;4.80;99.90;;;;;;5059416;28;20537;-69
2023/01/21 12:55:15;;;;;;;8.10;6.53;;;4.80;99.90;;;;;;5058158;28;20895;-68
2023/01/21 12:57:50;;;;;;;9.37;5.77;;;4.80;99.90;;;;;;5058058;28;21022;-69
2023/01/21 13:00:22;;;;;;;7.30;5.27;;;4.90;99.90;;;;;;5058318;28;20493;-70
2023/01/21 13:02:56;;;;;;;11.17;6.03;;;4.90;99.90;;;;;;5057813;28;20466;-69
2023/01/21 13:05:30;;;;;;;10.00;5.60;;;4.80;99.90;;;;;;5057161;28;20499;-69
2023/01/21 13:08:04;;;;;;;8.00;5.47;;;4.80;99.90;;;;;;5058106;28;20908;-69